FNLUFNSO

Guest
Details From FNLU - LUANDA 4 DE FEVEREIRO
To FNSO - SOYO
Flight Number -
Tags generated
Created
Modified
Stats Distance 171 nm / 317 km
Max Altitude 18,200 ft / 5,547 m
Waypoints 4
Social Downloads 4
Likes 0
Share VATSIM

Download

Looking for another format? Having issues loading an existing format? Contact us
Advertisement - Login to hide

Notes

Basic altitude profile: - Ascent Rate: 2500ft/min - Ascent Speed: 250kts - Cruise Altitude: 35000ft - Cruise Speed: 420kts - Descent Rate: 1500ft/min - Descent Speed: 250kts Options: - Use NATs: yes - Use PACOTS: yes - Use low airways: yes - Use high airways: yes

Route

FNLU IMLEX R987F AVUTA FNSO

ID Type Via Altitude Latitude Longitude Leg Dist Tot Dist Heading (true) Name
O FNLU APT - 0 ft / 0 m -8.85838˚ 13.23118˚ - 0 nm - LUANDA 4 DE FEVEREIRO
IMLEX FIX - 18,200 ft / 5,547 m -7.56500˚ 12.83333˚ 81 nm 81 nm 343° / 343° -
AVUTA FIX R987F (AWY-LO) 10,600 ft / 3,231 m -6.93167˚ 12.62667˚ 39 nm 121 nm 342° / 342° -
O FNSO APT - 0 ft / 0 m -6.14109˚ 12.37177˚ 49 nm 171 nm 342° / 342° SOYO

Altitude Profile

Advertisement - Login to hide

Weather


0- 5 10 15 20 25 30 35+ Temperature / ° C

Clouds and Precipitation
Forecast for 2017-12-15 06:00 UTC. Updated 40 minutes ago

Ground ~20,000 ft ~40,000 ft Winds

FNLU

Details ICAO FNLU (LAD)
Name LUANDA 4 DE FEVEREIRO
Region Angola
Timezone Africa/Luanda (UTC+1.0)
Stats Elevation 243 ft / 74 m (AMSL)
Location -8.858377° 13.231178°
Runways 2
Magnetic Variation 3.483° W

METAR

FNLU 150600Z 12007KT 8000 FEW020 SCT090 26/22 Q1012 NOSIG

Decode

TAF

TAF TAF FNLU 142245Z 1500/1606 18006KT 9999 FEW020 SCT022 FEW023TCU PROB30 TEMPO 1504/1508 8000 SCT020 BKN022 BECMG 1510/1512 27011KT 9999 FEW022 SCT025 TEMPO 1513/1517 FEW023 TEMPO 1602/1606 15005KT 7000 FEW018 BKN020

Decode

Departure Runways

ID Width Length Bearing (true) Bearing (mag) Surface Threshold Offset Overrun Length
05 148 ft / 45 m 12,153 ft / 3,704 m 46.63° 50.11° Asphalt 0 ft / 0 m 0 ft / 0 m
07 197 ft / 60 m 8,176 ft / 2,492 m 67.40° 70.88° Asphalt 0 ft / 0 m 176 ft / 54 m
23 148 ft / 45 m 12,153 ft / 3,704 m 226.62° 230.10° Asphalt 500 ft / 152 m 0 ft / 0 m
25 197 ft / 60 m 8,176 ft / 2,492 m 247.40° 250.88° Asphalt 0 ft / 0 m 0 ft / 0 m

FNSO

Details ICAO FNSO (SZA)
Name SOYO
Region Angola
Timezone Africa/Luanda (UTC+1.0)
Stats Elevation 15 ft / 5 m (AMSL)
Location -6.141087° 12.371766°
Runways 1
Magnetic Variation 2.802° W

METAR

Not found

TAF

TAF FNSO 142245Z 1500/1512 18005KT 9999 FEW020 BKN022 FEW023TCU BECMG 1509/1511 25011KT FEW018 SCT025

Decode

Destination Runways

ID Width Length Bearing (true) Bearing (mag) Surface Threshold Offset Overrun Length
07 174 ft / 53 m 6,865 ft / 2,092 m 55.11° 57.91° Asphalt 0 ft / 0 m 0 ft / 0 m
25 174 ft / 53 m 6,865 ft / 2,092 m 235.11° 237.91° Asphalt 0 ft / 0 m 0 ft / 0 m

Popular Alternatives